Time;durP1;ratioP1;P1;durP2;ratioP2;P2;SDS_P1;SDS_P2;PMS_P1;PMS_P2;Temp;Humidity;BMP_temperature;BMP_pressure;BME280_temperature;BME280_humidity;BME280_pressure;Samples;Min_cycle;Max_cycle;Signal;HPM_P1;HPM_P2
2021/03/13 00:01:28;;;;;;;6.33;3.00;;;;;;;4.57;75.18;99218.75;5089548;22;20227;-69
2021/03/13 00:03:54;;;;;;;4.20;2.70;;;;;;;4.39;76.29;99219.72;5052278;28;20223;-69
2021/03/13 00:06:19;;;;;;;8.27;2.87;;;;;;;4.31;77.01;99214.00;5053048;28;20187;-69
2021/03/13 00:08:44;;;;;;;3.77;2.60;;;;;;;4.35;76.26;99207.63;5036553;28;20171;-69
2021/03/13 00:11:10;;;;;;;7.20;2.90;;;;;;;4.21;76.56;99210.16;5054077;28;20195;-69
2021/03/13 00:13:38;;;;;;;4.53;2.30;;;;;;;4.11;76.82;99214.22;5037451;28;20171;-69
2021/03/13 00:16:05;;;;;;;3.50;2.20;;;;;;;4.10;75.78;99208.06;5037907;28;20595;-69
2021/03/13 00:18:30;;;;;;;3.97;2.47;;;;;;;4.06;75.71;99217.06;5054256;28;20187;-69
2021/03/13 00:20:56;;;;;;;5.73;2.00;;;;;;;4.11;75.26;99211.56;5052343;28;20545;-69
2021/03/13 00:23:21;;;;;;;3.13;2.00;;;;;;;3.95;74.70;99216.78;5053235;28;20195;-69
2021/03/13 00:25:46;;;;;;;1.40;1.30;;;;;;;3.88;73.86;99216.25;5053653;28;20658;-69
2021/03/13 00:28:12;;;;;;;3.47;1.67;;;;;;;3.94;72.77;99212.44;5035405;28;20185;-68
2021/03/13 00:30:43;;;;;;;1.37;1.23;;;;;;;3.89;72.39;99212.66;5053398;28;20260;-69
2021/03/13 00:33:11;;;;;;;2.73;1.30;;;;;;;3.88;71.58;99213.59;5051800;28;20187;-68
2021/03/13 00:35:37;;;;;;;2.07;1.20;;;;;;;3.89;71.47;99233.78;5051971;28;20208;-69
2021/03/13 00:38:04;;;;;;;2.27;1.10;;;;;;;3.92;70.79;99225.72;5054897;28;20282;-69
2021/03/13 00:40:30;;;;;;;2.77;0.90;;;;;;;4.05;70.27;99225.91;5057485;28;20191;-70
2021/03/13 00:42:57;;;;;;;3.00;0.93;;;;;;;4.10;69.47;99244.19;5055819;28;20248;-69
2021/03/13 00:45:23;;;;;;;2.00;0.90;;;;;;;4.04;69.46;99240.91;5055937;28;20168;-70
2021/03/13 00:47:49;;;;;;;1.27;1.00;;;;;;;4.08;68.93;99231.88;5056186;28;20236;-68
2021/03/13 00:50:16;;;;;;;0.90;0.80;;;;;;;4.12;68.93;99234.41;5057109;28;20174;-69
2021/03/13 00:52:42;;;;;;;1.13;0.80;;;;;;;3.94;69.66;99229.13;5055655;28;20192;-69
2021/03/13 00:55:08;;;;;;;1.30;0.90;;;;;;;3.96;69.98;99234.31;5055766;28;20285;-69
2021/03/13 00:57:34;;;;;;;0.63;0.63;;;;;;;3.87;70.44;99233.00;5057038;28;20560;-68
2021/03/13 00:59:59;;;;;;;3.17;0.97;;;;;;;3.83;70.86;99244.66;5056077;28;20191;-69
2021/03/13 01:02:24;;;;;;;2.83;0.83;;;;;;;3.91;71.15;99236.34;5056598;28;20221;-68
2021/03/13 01:04:50;;;;;;;1.97;0.80;;;;;;;3.81;70.63;99221.91;5056861;28;20183;-69
2021/03/13 01:07:15;;;;;;;1.70;0.90;;;;;;;3.76;71.37;99232.72;5055553;28;20211;-68
2021/03/13 01:09:41;;;;;;;1.33;0.80;;;;;;;3.67;72.22;99230.50;5056675;28;20186;-69
2021/03/13 01:12:07;;;;;;;2.30;0.77;;;;;;;3.67;72.33;99215.53;5055243;28;20225;-70
2021/03/13 01:14:32;;;;;;;1.50;0.93;;;;;;;3.66;73.04;99221.72;5055617;28;20178;-68
2021/03/13 01:16:58;;;;;;;2.27;1.10;;;;;;;3.71;73.41;99221.50;5056714;28;20661;-69
2021/03/13 01:19:23;;;;;;;3.37;1.33;;;;;;;3.80;73.58;99215.78;5055730;28;20198;-70
2021/03/13 01:21:48;;;;;;;4.13;1.60;;;;;;;3.73;74.03;99214.38;5056342;28;20252;-68
2021/03/13 01:24:14;;;;;;;2.60;1.40;;;;;;;3.79;73.86;99208.78;5056733;28;20217;-68
2021/03/13 01:26:39;;;;;;;5.13;1.90;;;;;;;3.70;75.20;99210.09;5055546;28;20207;-69
2021/03/13 01:29:05;;;;;;;3.03;2.17;;;;;;;3.75;75.33;99220.44;5055222;28;20182;-68
2021/03/13 01:31:30;;;;;;;3.17;2.10;;;;;;;3.78;75.32;99217.66;5056369;28;20241;-69
2021/03/13 01:33:56;;;;;;;2.83;2.23;;;;;;;3.66;76.07;99210.31;5056379;28;20721;-69
2021/03/13 01:36:21;;;;;;;4.37;2.40;;;;;;;3.69;76.35;99204.91;5056237;28;20175;-69
2021/03/13 01:38:46;;;;;;;4.90;2.60;;;;;;;3.70;76.22;99210.09;5056815;28;20525;-69
2021/03/13 01:41:12;;;;;;;3.03;2.23;;;;;;;3.63;76.45;99208.69;5056274;28;20199;-69
2021/03/13 01:43:38;;;;;;;4.07;2.87;;;;;;;3.55;77.19;99199.47;5054816;28;20260;-69
2021/03/13 01:46:04;;;;;;;4.10;2.87;;;;;;;3.54;77.40;99216.22;5054849;28;20256;-68
2021/03/13 01:48:36;;;;;;;4.23;3.07;;;;;;;3.57;77.15;99209.00;5053895;28;20253;-68
2021/03/13 01:51:03;;;;;;;7.07;3.07;;;;;;;3.61;76.92;99217.63;5037814;28;20666;-69
2021/03/13 01:53:28;;;;;;;4.50;2.90;;;;;;;3.62;76.96;99208.78;5055692;28;20178;-67
2021/03/13 01:55:53;;;;;;;3.50;3.20;;;;;;;3.53;78.03;99212.72;5054487;28;20182;-68
2021/03/13 01:58:19;;;;;;;3.97;2.57;;;;;;;3.64;77.06;99222.75;5054600;28;20177;-70
2021/03/13 02:00:44;;;;;;;5.57;3.33;;;;;;;3.62;77.17;99221.97;5054974;28;20183;-68
2021/03/13 02:03:10;;;;;;;4.60;3.33;;;;;;;3.48;77.56;99213.91;5055173;28;20599;-68
2021/03/13 02:05:46;;;;;;;4.27;3.30;;;;;;;3.41;78.39;99206.28;5054215;28;20232;-69
2021/03/13 02:08:20;;;;;;;4.40;3.30;;;;;;;3.29;78.57;99208.66;5054613;28;20160;-68
2021/03/13 02:11:02;;;;;;;4.50;3.33;;;;;;;3.48;77.78;99201.56;5054204;28;20177;-68
2021/03/13 02:13:31;;;;;;;4.40;3.60;;;;;;;3.39;78.23;99205.53;5054621;28;20169;-68
2021/03/13 02:16:04;;;;;;;5.17;3.20;;;;;;;3.43;78.01;99199.16;5054381;28;20212;-69
2021/03/13 02:18:33;;;;;;;5.27;3.43;;;;;;;3.34;78.55;99199.59;5062236;28;20249;-69
2021/03/13 02:21:09;;;;;;;3.70;3.30;;;;;;;3.40;78.66;99199.31;5062433;28;20544;-69
2021/03/13 02:23:54;;;;;;;5.80;3.37;;;;;;;3.38;78.26;99193.25;5054766;28;20201;-69
2021/03/13 02:26:47;;;;;;;5.87;2.83;;;;;;;3.41;77.95;99208.94;5055133;28;20541;-69
2021/03/13 02:29:15;;;;;;;5.27;2.67;;;;;;;3.31;78.28;99218.19;5053789;28;20179;-69
2021/03/13 02:31:45;;;;;;;5.20;2.97;;;;;;;3.28;78.32;99201.69;5055052;28;20203;-69
2021/03/13 02:34:10;;;;;;;4.30;2.60;;;;;;;3.35;78.27;99208.38;5037130;28;20189;-69
2021/03/13 02:36:36;;;;;;;4.77;3.10;;;;;;;3.40;77.37;99198.47;5053823;28;20181;-69
2021/03/13 02:39:04;;;;;;;5.90;2.80;;;;;;;3.42;77.57;99208.00;5037276;28;20186;-69
2021/03/13 02:41:35;;;;;;;2.90;2.30;;;;;;;3.45;77.97;99213.13;5053601;28;20213;-69
2021/03/13 02:44:02;;;;;;;5.87;3.27;;;;;;;3.53;77.02;99204.81;5054999;28;20677;-69
2021/03/13 02:46:28;;;;;;;6.83;2.87;;;;;;;3.52;76.87;99213.66;5054279;28;20602;-69
2021/03/13 02:48:54;;;;;;;4.57;2.57;;;;;;;3.44;77.49;99203.50;5053737;28;20184;-69
2021/03/13 02:51:21;;;;;;;3.37;2.20;;;;;;;3.40;77.47;99211.66;5036617;28;20202;-69
2021/03/13 02:53:47;;;;;;;3.77;2.10;;;;;;;3.64;76.31;99223.59;5053474;28;20659;-69
2021/03/13 02:56:15;;;;;;;4.63;2.10;;;;;;;3.73;76.04;99220.53;5053364;28;20209;-69
2021/03/13 02:58:40;;;;;;;4.47;2.10;;;;;;;3.61;76.83;99234.31;5053826;28;20174;-68
2021/03/13 03:01:07;;;;;;;3.40;2.07;;;;;;;3.48;77.84;99216.53;5053020;28;20699;-68
2021/03/13 03:03:33;;;;;;;4.77;2.00;;;;;;;3.29;78.59;99214.78;5053204;28;20194;-69
2021/03/13 03:05:59;;;;;;;2.33;1.90;;;;;;;3.24;79.28;99213.31;5053350;28;20177;-68
2021/03/13 03:08:24;;;;;;;2.27;1.70;;;;;;;3.19;78.89;99234.63;5054394;28;20251;-69
2021/03/13 03:10:50;;;;;;;3.97;2.03;;;;;;;3.00;80.32;99218.00;5053285;28;20272;-69
2021/03/13 03:13:16;;;;;;;4.90;2.20;;;;;;;2.97;80.06;99224.25;5054214;28;20209;-69
2021/03/13 03:15:42;;;;;;;3.80;2.40;;;;;;;2.77;80.96;99230.47;5052820;28;20543;-69
2021/03/13 03:18:12;;;;;;;3.73;1.90;;;;;;;2.81;81.18;99231.16;5053139;28;20183;-69
2021/03/13 03:20:38;;;;;;;3.00;1.83;;;;;;;2.87;80.75;99224.75;5054451;28;20547;-69
2021/03/13 03:23:05;;;;;;;6.87;2.47;;;;;;;2.80;81.41;99237.38;5052700;28;20204;-69
2021/03/13 03:25:31;;;;;;;4.50;2.10;;;;;;;2.81;81.38;99228.53;5053071;28;20215;-69
2021/03/13 03:27:56;;;;;;;3.73;2.33;;;;;;;2.86;80.68;99225.69;5052817;28;20566;-69
2021/03/13 03:30:31;;;;;;;3.63;2.23;;;;;;;2.79;81.15;99227.75;5053784;28;20181;-68
2021/03/13 03:32:59;;;;;;;3.17;2.20;;;;;;;2.74;81.22;99238.50;5054513;28;20186;-68
2021/03/13 03:35:25;;;;;;;6.63;2.10;;;;;;;2.67;81.88;99238.88;5053063;28;20645;-69
2021/03/13 03:37:52;;;;;;;5.37;2.83;;;;;;;2.84;81.10;99225.75;5036211;28;20185;-69
2021/03/13 03:40:18;;;;;;;3.07;2.40;;;;;;;2.68;81.77;99228.25;5052627;28;20188;-68
2021/03/13 03:42:47;;;;;;;9.60;2.67;;;;;;;2.70;82.12;99223.78;5052333;28;20206;-69
2021/03/13 03:45:14;;;;;;;5.63;1.93;;;;;;;2.63;81.96;99222.34;5035673;28;20218;-69
2021/03/13 03:47:40;;;;;;;5.20;2.50;;;;;;;2.76;81.67;99209.44;5052426;28;20591;-68
2021/03/13 03:50:07;;;;;;;3.40;2.40;;;;;;;2.72;81.87;99224.56;5035654;28;20177;-69
2021/03/13 03:52:33;;;;;;;4.27;2.40;;;;;;;2.77;81.77;99213.78;5052209;28;20265;-69
2021/03/13 03:54:59;;;;;;;7.70;3.20;;;;;;;2.76;82.35;99214.72;5052277;28;20182;-69
2021/03/13 03:57:25;;;;;;;7.73;2.80;;;;;;;2.79;82.29;99211.94;5052339;28;20181;-69
2021/03/13 03:59:51;;;;;;;5.13;3.30;;;;;;;2.78;82.19;99212.88;5035412;28;20189;-69
2021/03/13 04:02:18;;;;;;;6.73;3.43;;;;;;;2.87;82.11;99230.88;5052042;28;20230;-69
2021/03/13 04:04:44;;;;;;;6.10;4.10;;;;;;;2.96;81.52;99216.41;5052157;28;20171;-69
2021/03/13 04:07:09;;;;;;;6.37;3.43;;;;;;;3.02;81.31;99218.78;5053368;28;20254;-69
2021/03/13 04:09:35;;;;;;;6.03;3.70;;;;;;;3.00;81.06;99218.00;5052251;28;20182;-69
2021/03/13 04:12:04;;;;;;;4.57;3.37;;;;;;;3.04;81.01;99211.66;5051661;28;20202;-69
2021/03/13 04:14:30;;;;;;;7.17;4.23;;;;;;;3.04;80.98;99204.59;5051919;28;20186;-69
2021/03/13 04:16:55;;;;;;;8.23;4.43;;;;;;;3.11;80.79;99200.72;5051939;28;20184;-69
2021/03/13 04:19:21;;;;;;;6.00;3.83;;;;;;;2.95;81.43;99207.66;5035162;28;20182;-68
2021/03/13 04:21:47;;;;;;;8.60;4.30;;;;;;;3.02;81.21;99208.22;5051819;28;20239;-69
2021/03/13 04:24:13;;;;;;;8.53;4.40;;;;;;;3.09;80.81;99201.72;5052078;28;20198;-69
2021/03/13 04:26:39;;;;;;;7.77;4.30;;;;;;;3.10;80.67;99206.06;5051740;28;20185;-69
2021/03/13 04:29:04;;;;;;;4.90;3.50;;;;;;;3.21;80.24;99222.22;5051982;28;20702;-69
2021/03/13 04:31:31;;;;;;;5.33;4.00;;;;;;;3.17;80.51;99211.91;5035004;28;20241;-69
2021/03/13 04:33:57;;;;;;;4.77;4.00;;;;;;;3.16;80.42;99229.50;5052102;28;20198;-69
2021/03/13 04:36:25;;;;;;;8.30;4.33;;;;;;;3.20;80.54;99201.22;5035244;28;20175;-69
2021/03/13 04:38:51;;;;;;;8.23;4.47;;;;;;;3.20;79.92;99203.84;5051780;28;20179;-69
2021/03/13 04:41:16;;;;;;;9.20;4.60;;;;;;;3.24;79.64;99200.13;5051674;28;20614;-69
2021/03/13 04:43:42;;;;;;;8.53;4.73;;;;;;;3.19;79.57;99212.69;5034975;28;20194;-68
2021/03/13 04:46:07;;;;;;;6.73;4.80;;;;;;;3.14;79.68;99173.38;5051556;28;20184;-68
2021/03/13 04:48:33;;;;;;;9.13;4.33;;;;;;;3.35;79.17;99187.28;5051629;28;20175;-68
2021/03/13 04:51:01;;;;;;;5.33;4.40;;;;;;;3.26;79.43;99196.47;5052939;28;20183;-69
2021/03/13 04:53:29;;;;;;;7.13;4.70;;;;;;;3.29;79.19;99193.69;5052102;28;20691;-69
2021/03/13 04:55:55;;;;;;;7.30;4.80;;;;;;;3.27;79.23;99203.47;5053126;28;20700;-68
2021/03/13 04:58:21;;;;;;;6.57;4.33;;;;;;;3.14;80.07;99207.63;5034869;28;20186;-70
2021/03/13 05:00:47;;;;;;;7.40;4.40;;;;;;;3.21;79.66;99195.00;5052227;28;20182;-69
2021/03/13 05:03:13;;;;;;;9.50;4.77;;;;;;;3.19;79.56;99204.78;5052212;28;20213;-68
2021/03/13 05:05:38;;;;;;;7.43;4.67;;;;;;;3.24;79.87;99185.16;5052738;28;20186;-70
2021/03/13 05:08:04;;;;;;;5.27;4.37;;;;;;;3.15;80.17;99190.88;5034906;28;20181;-70
2021/03/13 05:10:29;;;;;;;11.23;4.70;;;;;;;3.31;79.79;99183.06;5051749;28;20182;-69
2021/03/13 05:12:54;;;;;;;8.20;4.70;;;;;;;3.32;79.58;99195.31;5051981;28;20221;-68
2021/03/13 05:15:20;;;;;;;6.90;4.40;;;;;;;3.32;79.32;99209.34;5051863;28;20175;-69
2021/03/13 05:17:45;;;;;;;8.57;5.50;;;;;;;3.33;79.65;99207.56;5040418;28;20173;-68
2021/03/13 05:20:11;;;;;;;9.87;4.80;;;;;;;3.36;79.09;99200.41;5056111;28;20189;-69
2021/03/13 05:22:36;;;;;;;10.13;5.87;;;;;;;3.23;80.40;99193.13;5052553;28;20240;-69
2021/03/13 05:25:03;;;;;;;8.63;5.97;;;;;;;3.33;79.39;99191.75;5055436;28;20190;-69
2021/03/13 05:27:28;;;;;;;8.70;5.33;;;;;;;3.22;80.38;99197.56;5056709;28;20265;-69
2021/03/13 05:29:54;;;;;;;6.53;5.07;;;;;;;3.26;80.05;99183.28;5055770;28;20178;-69
2021/03/13 05:32:20;;;;;;;6.97;4.87;;;;;;;3.17;80.66;99185.53;5055456;28;20195;-70
2021/03/13 05:34:45;;;;;;;6.97;4.63;;;;;;;3.18;80.52;99179.34;5055358;28;20535;-68
2021/03/13 05:37:10;;;;;;;9.33;5.27;;;;;;;3.17;80.36;99165.31;5056786;28;20179;-69
2021/03/13 05:39:35;;;;;;;8.80;5.13;;;;;;;3.27;80.30;99179.72;5056613;28;20682;-70
2021/03/13 05:42:02;;;;;;;9.97;4.90;;;;;;;3.33;79.55;99182.06;5056702;28;20701;-69
2021/03/13 05:44:28;;;;;;;5.67;4.27;;;;;;;3.31;79.66;99178.66;5056108;28;20701;-69
2021/03/13 05:46:54;;;;;;;6.03;4.50;;;;;;;3.40;78.94;99165.03;5055001;28;20174;-69
2021/03/13 05:49:20;;;;;;;6.43;3.97;;;;;;;3.41;78.70;99177.28;5055397;28;20194;-69
2021/03/13 05:51:46;;;;;;;8.43;4.60;;;;;;;3.29;79.39;99175.22;5055249;28;20210;-69
2021/03/13 05:54:13;;;;;;;9.70;4.63;;;;;;;3.28;79.13;99170.88;5054746;28;20235;-69
2021/03/13 05:56:40;;;;;;;5.27;3.73;;;;;;;3.34;78.81;99172.38;5054693;28;20189;-69
2021/03/13 05:59:05;;;;;;;7.23;3.83;;;;;;;3.37;78.16;99175.72;5055921;28;20182;-68
2021/03/13 06:01:31;;;;;;;4.40;3.50;;;;;;;3.52;77.60;99174.09;5077235;22;20205;-72
2021/03/13 06:03:56;;;;;;;5.77;3.47;;;;;;;3.48;77.61;99164.63;5074756;28;20563;-72
2021/03/13 06:06:23;;;;;;;4.33;3.33;;;;;;;3.48;77.43;99166.41;5075733;28;20174;-71
2021/03/13 06:08:49;;;;;;;4.63;3.17;;;;;;;3.49;77.17;99160.22;5074701;28;20216;-71
2021/03/13 06:11:18;;;;;;;5.70;3.50;;;;;;;3.34;78.08;99157.41;5075737;28;20176;-71
2021/03/13 06:13:43;;;;;;;5.00;3.47;;;;;;;3.14;79.22;99153.13;5054480;28;20224;-71
2021/03/13 06:16:09;;;;;;;7.70;3.17;;;;;;;2.97;79.86;99144.31;5056155;28;20182;-71
2021/03/13 06:18:50;;;;;;;4.90;3.37;;;;;;;2.97;79.80;99144.31;5055618;28;20181;-71
2021/03/13 06:21:28;;;;;;;6.10;4.27;;;;;;;3.00;80.13;99144.19;5055360;28;20170;-70
2021/03/13 06:24:15;;;;;;;5.30;3.47;;;;;;;2.94;79.85;99136.56;5055877;28;20195;-71
2021/03/13 06:26:51;;;;;;;6.80;3.83;;;;;;;2.98;79.61;99141.63;5055753;28;20179;-71
2021/03/13 06:29:16;;;;;;;6.07;3.93;;;;;;;2.95;79.87;99136.47;5060602;28;20261;-72
2021/03/13 06:31:41;;;;;;;6.13;3.70;;;;;;;3.21;79.11;99131.72;5055834;28;20238;-72
2021/03/13 06:34:07;;;;;;;7.50;4.10;;;;;;;3.05;79.66;99121.09;5054207;28;20179;-72
2021/03/13 06:36:32;;;;;;;5.93;3.93;;;;;;;3.03;79.77;99129.09;5054464;28;20177;-71
2021/03/13 06:38:57;;;;;;;6.07;4.33;;;;;;;3.03;80.03;99118.53;5054105;28;20469;-72
2021/03/13 06:41:23;;;;;;;10.33;4.80;;;;;;;3.10;79.89;99109.41;5055131;28;20296;-72
2021/03/13 06:43:51;;;;;;;9.80;5.00;;;;;;;3.08;79.99;99115.69;5054073;28;20194;-72
2021/03/13 06:46:18;;;;;;;9.80;5.00;;;;;;;3.19;79.94;99123.91;5053844;28;20276;-72
2021/03/13 06:48:49;;;;;;;8.23;4.87;;;;;;;3.29;79.34;99108.47;5053632;28;20174;-71
2021/03/13 06:51:15;;;;;;;6.17;4.30;;;;;;;3.32;79.45;99124.13;5053841;28;20182;-72
2021/03/13 06:53:41;;;;;;;7.57;4.33;;;;;;;3.29;79.51;99122.50;5056025;28;20199;-71
2021/03/13 06:56:08;;;;;;;9.27;4.50;;;;;;;3.53;79.06;99127.47;5058640;28;20205;-72
2021/03/13 06:58:33;;;;;;;6.83;4.30;;;;;;;3.52;78.61;99123.13;5055934;28;20184;-72
2021/03/13 07:01:06;;;;;;;8.70;4.00;;;;;;;3.58;78.09;99117.53;5054207;28;20178;-71
2021/03/13 07:03:32;;;;;;;6.27;4.43;;;;;;;3.53;78.86;99112.50;5053831;28;20690;-72
2021/03/13 07:05:59;;;;;;;9.80;4.37;;;;;;;3.55;78.26;99104.50;5053527;28;20175;-72
2021/03/13 07:08:28;;;;;;;7.77;4.57;;;;;;;3.75;77.68;99105.19;5053455;28;20232;-71
2021/03/13 07:11:02;;;;;;;7.63;4.20;;;;;;;3.77;77.82;99099.81;5053602;28;20185;-71
2021/03/13 07:13:34;;;;;;;5.60;3.50;;;;;;;3.85;77.37;99107.34;5053955;28;20513;-72
2021/03/13 07:16:32;;;;;;;7.93;3.50;;;;;;;3.99;77.04;99088.97;5037082;28;20174;-72
2021/03/13 07:19:00;;;;;;;7.53;3.67;;;;;;;3.79;76.76;99063.66;5053794;28;20186;-73
2021/03/13 07:21:26;;;;;;;6.03;3.90;;;;;;;3.91;76.25;99070.91;5053360;28;20182;-72
2021/03/13 07:24:03;;;;;;;6.00;4.07;;;;;;;4.04;76.30;99071.09;5053117;28;20214;-72
2021/03/13 07:26:37;;;;;;;6.53;3.60;;;;;;;4.11;75.88;99069.84;5053399;28;20619;-72
2021/03/13 07:29:05;;;;;;;7.50;3.90;;;;;;;4.18;75.73;99065.94;5053299;28;20202;-72
2021/03/13 07:31:34;;;;;;;6.67;3.47;;;;;;;4.15;75.64;99073.16;5054569;28;20172;-72
2021/03/13 07:34:01;;;;;;;5.87;3.07;;;;;;;4.26;75.02;99073.44;5053210;28;20308;-72
2021/03/13 07:36:27;;;;;;;6.93;3.07;;;;;;;4.32;75.99;99059.88;5054549;28;20178;-74
2021/03/13 07:38:57;;;;;;;4.00;2.70;;;;;;;4.13;75.85;99056.56;5037497;28;20179;-73
2021/03/13 07:41:23;;;;;;;5.83;3.60;;;;;;;4.16;75.69;99065.16;5053282;28;20619;-72
2021/03/13 07:43:48;;;;;;;6.13;3.50;;;;;;;4.52;74.18;99057.00;5054384;28;20332;-72
2021/03/13 07:46:14;;;;;;;9.97;4.27;;;;;;;4.39;74.91;99042.75;5052977;28;20202;-73
2021/03/13 07:48:40;;;;;;;5.70;2.97;;;;;;;4.53;74.68;99037.56;5054474;28;20667;-73
2021/03/13 07:51:06;;;;;;;7.50;2.70;;;;;;;4.63;74.01;99037.88;5053056;28;20176;-74
2021/03/13 07:53:41;;;;;;;4.20;2.70;;;;;;;4.65;74.22;99034.19;5054123;28;20191;-71
2021/03/13 07:56:12;;;;;;;5.47;2.40;;;;;;;5.01;72.99;99038.31;5036656;28;20172;-71
2021/03/13 07:58:41;;;;;;;6.70;2.97;;;;;;;4.70;72.54;99023.38;5052675;28;20179;-72
2021/03/13 08:01:07;;;;;;;5.77;2.50;;;;;;;4.87;72.61;99022.41;5053270;28;20175;-71
2021/03/13 08:03:32;;;;;;;3.70;1.80;;;;;;;5.03;72.13;99015.28;5052685;28;20223;-72
2021/03/13 08:06:02;;;;;;;2.53;1.83;;;;;;;4.97;71.53;99020.94;5054703;28;20194;-73
2021/03/13 08:08:48;;;;;;;3.70;1.90;;;;;;;5.19;71.84;99005.47;5053429;28;20180;-71
2021/03/13 08:11:20;;;;;;;7.77;2.03;;;;;;;4.89;72.69;99004.66;5052672;28;20168;-73
2021/03/13 08:13:53;;;;;;;3.30;1.73;;;;;;;4.80;72.99;98998.09;5052645;28;20172;-72
2021/03/13 08:16:38;;;;;;;4.30;2.00;;;;;;;5.28;72.05;98993.50;5054195;28;20544;-73
2021/03/13 08:19:24;;;;;;;10.50;2.37;;;;;;;5.32;70.86;98974.72;5052586;28;20521;-72
2021/03/13 08:21:49;;;;;;;3.83;1.73;;;;;;;5.21;71.25;98981.59;5052998;28;20199;-73
2021/03/13 08:24:15;;;;;;;3.03;1.50;;;;;;;4.88;72.35;98955.38;5052391;28;20204;-72
2021/03/13 08:26:40;;;;;;;4.33;1.87;;;;;;;5.17;72.03;98965.03;5053390;28;20184;-72
2021/03/13 08:29:07;;;;;;;7.50;2.23;;;;;;;5.24;71.29;98950.53;5052736;28;20179;-72
2021/03/13 08:31:36;;;;;;;3.60;1.57;;;;;;;5.18;71.97;98956.16;5054168;28;20262;-72
2021/03/13 08:34:04;;;;;;;2.37;1.77;;;;;;;5.46;70.72;98970.34;5052752;28;20179;-72
2021/03/13 08:36:46;;;;;;;4.53;1.70;;;;;;;5.76;69.48;98960.53;5053148;28;20186;-71
2021/03/13 08:39:14;;;;;;;3.67;1.63;;;;;;;5.54;70.08;98945.13;5052153;28;20171;-72
2021/03/13 08:41:42;;;;;;;6.97;2.20;;;;;;;5.23;71.61;98945.34;5052714;28;20226;-72
2021/03/13 08:44:20;;;;;;;2.10;1.70;;;;;;;5.47;70.71;98938.50;5053578;28;20281;-72
2021/03/13 08:47:05;;;;;;;4.53;1.90;;;;;;;5.21;71.55;98944.56;5053790;28;20160;-71
2021/03/13 08:49:30;;;;;;;3.37;1.43;;;;;;;5.24;71.83;98917.94;5053816;28;20175;-72
2021/03/13 08:52:05;;;;;;;2.50;1.50;;;;;;;5.36;71.50;98916.31;5053057;28;20199;-72
2021/03/13 08:54:45;;;;;;;3.43;1.70;;;;;;;5.19;71.51;98931.41;5053382;28;20293;-72
2021/03/13 08:57:13;;;;;;;5.30;1.90;;;;;;;5.37;71.74;98907.44;5053345;28;20162;-72
2021/03/13 08:59:41;;;;;;;2.97;1.43;;;;;;;5.39;71.34;98901.09;5056396;28;20183;-72
2021/03/13 09:02:07;;;;;;;4.20;1.67;;;;;;;5.43;71.62;98883.25;5039221;28;20234;-72
2021/03/13 09:04:34;;;;;;;4.10;1.73;;;;;;;5.33;71.45;98867.94;5056140;28;20206;-72
2021/03/13 09:07:00;;;;;;;2.43;1.57;;;;;;;5.41;71.67;98882.50;5056395;28;20221;-73
2021/03/13 09:09:28;;;;;;;2.70;1.60;;;;;;;5.44;70.99;98864.63;5057049;28;20183;-72
2021/03/13 09:12:00;;;;;;;2.37;1.70;;;;;;;5.29;72.19;98861.16;5076273;28;20198;-72
2021/03/13 09:14:25;;;;;;;3.00;1.77;;;;;;;5.33;72.36;98854.72;5057135;28;20251;-72
2021/03/13 09:16:51;;;;;;;2.33;1.67;;;;;;;5.32;72.83;98873.34;5057485;28;20254;-71
2021/03/13 09:19:16;;;;;;;4.20;1.97;;;;;;;5.43;72.02;98832.97;5055555;28;20637;-72
2021/03/13 09:21:53;;;;;;;4.47;1.93;;;;;;;5.40;72.74;98859.63;5056509;28;20191;-71
2021/03/13 09:24:23;;;;;;;2.27;1.80;;;;;;;5.20;73.31;98859.09;5055651;28;20259;-71
2021/03/13 09:26:51;;;;;;;3.50;1.60;;;;;;;5.69;72.51;98850.69;5055236;28;20176;-72
2021/03/13 09:29:27;;;;;;;5.30;2.77;;;;;;;5.31;74.33;98834.59;5055144;28;20176;-72
2021/03/13 09:32:00;;;;;;;8.73;2.27;;;;;;;5.10;75.47;98830.66;5057217;28;20623;-71
2021/03/13 09:34:26;;;;;;;3.67;2.00;;;;;;;5.03;76.11;98820.44;5056806;28;20159;-72
2021/03/13 09:36:52;;;;;;;2.13;1.83;;;;;;;5.08;75.69;98830.75;5055402;28;20520;-70
2021/03/13 09:39:26;;;;;;;3.30;2.10;;;;;;;5.01;75.85;98825.00;5054946;28;20686;-71
2021/03/13 09:42:26;;;;;;;5.13;2.00;;;;;;;5.14;77.36;98819.78;5055164;28;20198;-71
2021/03/13 09:44:57;;;;;;;4.03;2.30;;;;;;;5.22;77.79;98800.81;5033966;28;20192;-71
2021/03/13 09:47:27;;;;;;;2.80;2.17;;;;;;;5.45;76.51;98805.47;5038316;28;20175;-70
2021/03/13 09:49:54;;;;;;;3.90;2.33;;;;;;;5.20;78.22;98800.91;5056010;28;20179;-71
2021/03/13 09:52:25;;;;;;;4.13;2.10;;;;;;;5.08;78.33;98783.16;5056893;28;20203;-71
2021/03/13 09:54:58;;;;;;;3.83;1.90;;;;;;;4.94;79.12;98748.81;5055270;28;20175;-70
2021/03/13 09:57:25;;;;;;;3.20;1.90;;;;;;;4.63;80.22;98785.06;5056607;28;20562;-70
2021/03/13 09:59:50;;;;;;;2.70;2.10;;;;;;;4.58;80.89;98779.19;5056074;28;20655;-71
2021/03/13 10:02:15;;;;;;;4.63;2.80;;;;;;;4.59;82.06;98759.75;5061202;28;20199;-71
2021/03/13 10:04:41;;;;;;;3.33;1.70;;;;;;;4.49;81.01;98778.91;5058721;28;20172;-71
2021/03/13 10:07:06;;;;;;;2.47;1.70;;;;;;;4.42;81.28;98759.94;5057232;28;20168;-72
2021/03/13 10:09:31;;;;;;;2.27;1.60;;;;;;;4.46;82.66;98748.25;5056592;28;20179;-71
2021/03/13 10:11:58;;;;;;;3.77;1.80;;;;;;;4.29;81.67;98745.78;5055453;28;20203;-71
2021/03/13 10:14:24;;;;;;;4.57;1.90;;;;;;;4.23;81.54;98740.88;5056259;28;20704;-72
2021/03/13 10:16:59;;;;;;;1.87;1.67;;;;;;;4.15;81.84;98725.50;5056677;28;20179;-73
2021/03/13 10:19:39;;;;;;;3.10;1.80;;;;;;;4.11;84.31;98710.78;5055407;28;20171;-72
2021/03/13 10:22:09;;;;;;;3.40;2.10;;;;;;;4.14;84.96;98723.78;5055104;28;20570;-73
2021/03/13 10:25:01;;;;;;;2.50;1.77;;;;;;;4.11;83.28;98733.69;5056649;28;20195;-72
2021/03/13 10:27:28;;;;;;;3.37;1.93;;;;;;;4.08;83.81;98708.28;5039558;28;20197;-72
2021/03/13 10:30:01;;;;;;;2.40;1.70;;;;;;;4.21;83.48;98700.50;5054903;28;20172;-72
2021/03/13 10:32:29;;;;;;;2.83;1.70;;;;;;;4.18;83.75;98669.00;5054994;28;20202;-72
2021/03/13 10:35:07;;;;;;;3.60;1.57;;;;;;;4.18;82.91;98661.09;5055284;28;20179;-72
2021/03/13 10:37:37;;;;;;;1.83;1.67;;;;;;;4.18;83.48;98679.56;5056896;28;20181;-71
2021/03/13 10:40:04;;;;;;;2.17;1.73;;;;;;;4.12;84.36;98670.22;5054933;28;20174;-72
2021/03/13 10:42:34;;;;;;;2.20;1.67;;;;;;;3.97;83.82;98682.53;5056291;28;20574;-71
2021/03/13 10:45:11;;;;;;;3.50;1.83;;;;;;;4.09;84.37;98646.66;5055261;28;20250;-72
2021/03/13 10:47:36;;;;;;;2.90;1.80;;;;;;;3.96;85.29;98658.88;5054292;28;20188;-71
2021/03/13 10:50:02;;;;;;;3.23;2.00;;;;;;;3.92;85.12;98652.94;5055531;28;20231;-72
2021/03/13 10:52:28;;;;;;;2.80;1.90;;;;;;;3.87;86.68;98633.91;5055547;28;20209;-72
2021/03/13 10:54:53;;;;;;;5.03;2.47;;;;;;;3.68;89.22;98634.13;5055596;28;20174;-70
2021/03/13 10:57:19;;;;;;;2.30;2.07;;;;;;;3.90;88.53;98619.66;5037112;28;20175;-71
2021/03/13 10:59:44;;;;;;;2.97;2.60;;;;;;;3.69;90.54;98619.16;5055294;28;20177;-72
2021/03/13 11:02:10;;;;;;;3.97;2.87;;;;;;;3.67;89.36;98626.31;5053537;28;20231;-71
2021/03/13 11:04:35;;;;;;;3.07;2.77;;;;;;;3.69;90.91;98604.19;5055152;28;20255;-72
2021/03/13 11:07:01;;;;;;;4.27;2.83;;;;;;;3.67;91.14;98610.50;5054818;28;20179;-72
2021/03/13 11:09:26;;;;;;;3.10;2.43;;;;;;;3.80;90.60;98608.84;5055013;28;20202;-72
2021/03/13 11:11:51;;;;;;;5.20;3.03;;;;;;;3.72;91.46;98603.19;5053796;28;20248;-71
2021/03/13 11:14:17;;;;;;;4.57;3.17;;;;;;;3.73;91.28;98589.03;5055755;28;20189;-72
2021/03/13 11:16:43;;;;;;;2.57;2.33;;;;;;;3.82;91.37;98595.53;5054069;28;20215;-72
2021/03/13 11:19:08;;;;;;;3.93;2.40;;;;;;;3.80;100.00;98595.63;5053715;28;20191;-72
2021/03/13 11:21:35;;;;;;;3.40;2.70;;;;;;;3.85;100.00;98595.34;5054107;28;20249;-71
2021/03/13 11:24:00;;;;;;;4.40;2.50;;;;;;;3.92;100.00;98571.13;5053449;28;20205;-72
2021/03/13 11:26:26;;;;;;;2.30;2.10;;;;;;;3.94;100.00;98552.56;5054499;28;20185;-73
2021/03/13 11:28:51;;;;;;;3.70;2.70;;;;;;;3.96;100.00;98561.22;5054995;28;20237;-73
2021/03/13 11:31:17;;;;;;;3.87;2.97;;;;;;;3.97;100.00;98549.72;5037219;28;20183;-74
2021/03/13 11:33:42;;;;;;;6.20;2.60;;;;;;;3.97;100.00;98542.66;5055436;28;20210;-73
2021/03/13 11:36:08;;;;;;;5.23;3.30;;;;;;;4.02;100.00;98551.13;5055623;28;20499;-73
2021/03/13 11:38:35;;;;;;;3.83;2.87;;;;;;;4.07;100.00;98553.47;5055042;28;20180;-72
2021/03/13 11:41:03;;;;;;;3.20;2.53;;;;;;;4.18;100.00;98529.06;5054452;28;20179;-73
2021/03/13 11:43:29;;;;;;;4.20;2.97;;;;;;;4.12;100.00;98545.31;5053039;28;20252;-72
2021/03/13 11:45:55;;;;;;;3.20;2.83;;;;;;;4.15;100.00;98545.09;5036137;28;20647;-73